Time;durP1;ratioP1;P1;durP2;ratioP2;P2;SDS_P1;SDS_P2;PMS_P1;PMS_P2;Temp;Humidity;BMP_temperature;BMP_pressure;BME280_temperature;BME280_humidity;BME280_pressure;Samples;Min_cycle;Max_cycle;Signal;HPM_P1;HPM_P2
2023/12/28 00:02:14;;;;;;;4.25;1.65;;;;;;;8.50;100.00;100752.31;5036875;28;20025;-74
2023/12/28 00:04:39;;;;;;;4.97;1.50;;;;;;;8.46;100.00;100746.59;5033287;28;20053;-74
2023/12/28 00:07:05;;;;;;;2.47;1.60;;;;;;;8.57;100.00;100754.16;5033467;28;20037;-74
2023/12/28 00:09:30;;;;;;;5.32;3.05;;;;;;;8.47;100.00;100750.00;5032094;28;20048;-74
2023/12/28 00:11:56;;;;;;;2.40;1.45;;;;;;;8.56;100.00;100749.13;5030286;28;20037;-74
2023/12/28 00:14:21;;;;;;;3.92;1.75;;;;;;;8.52;100.00;100752.97;5036643;28;20033;-74
2023/12/28 00:16:46;;;;;;;4.78;1.50;;;;;;;8.51;100.00;100743.56;5030932;28;20173;-74
2023/12/28 00:19:12;;;;;;;3.78;1.73;;;;;;;8.59;100.00;100751.44;5045941;28;20047;-75
2023/12/28 00:21:37;;;;;;;4.28;1.73;;;;;;;8.50;100.00;100753.09;5030203;28;20825;-74
2023/12/28 00:24:03;;;;;;;3.33;1.70;;;;;;;8.50;100.00;100752.31;5029504;28;20045;-75
2023/12/28 00:26:29;;;;;;;4.70;1.83;;;;;;;8.55;100.00;100761.25;5036230;28;20121;-75
2023/12/28 00:29:03;;;;;;;3.80;1.67;;;;;;;8.55;100.00;100743.16;5012834;28;20743;-74
2023/12/28 00:31:28;;;;;;;7.03;1.95;;;;;;;8.62;100.00;100763.25;5029884;28;20060;-74
2023/12/28 00:33:53;;;;;;;5.30;1.90;;;;;;;8.54;100.00;100766.56;5035171;28;20498;-74
2023/12/28 00:36:20;;;;;;;3.58;1.73;;;;;;;8.55;100.00;100771.59;5040201;28;20052;-74
2023/12/28 00:38:45;;;;;;;3.63;1.70;;;;;;;8.58;100.00;100778.22;5035002;28;20499;-75
2023/12/28 00:41:11;;;;;;;4.32;2.08;;;;;;;8.58;100.00;100767.91;5035557;28;20033;-75
2023/12/28 00:43:37;;;;;;;3.22;1.63;;;;;;;8.53;100.00;100776.09;5028585;28;20031;-75
2023/12/28 00:46:02;;;;;;;4.40;1.95;;;;;;;8.48;100.00;100769.72;5055014;28;20041;-74
2023/12/28 00:48:28;;;;;;;6.25;1.77;;;;;;;8.58;100.00;100768.69;5038365;28;20029;-74
2023/12/28 00:50:55;;;;;;;3.15;1.98;;;;;;;8.54;100.00;100784.66;5019258;28;20033;-74
2023/12/28 00:53:20;;;;;;;5.10;1.60;;;;;;;8.54;100.00;100782.06;5041047;28;20044;-74
2023/12/28 00:55:46;;;;;;;2.30;1.52;;;;;;;8.45;100.00;100775.97;5042217;28;20041;-74
2023/12/28 00:58:11;;;;;;;5.47;1.70;;;;;;;8.37;100.00;100779.22;5025296;28;20036;-74
2023/12/28 01:00:37;;;;;;;6.72;2.13;;;;;;;8.46;100.00;100787.94;5022952;28;20511;-74
2023/12/28 01:03:03;;;;;;;4.18;1.92;;;;;;;8.43;100.00;100787.41;5038952;28;20037;-74
2023/12/28 01:05:29;;;;;;;2.78;1.75;;;;;;;8.43;100.00;100777.88;5035553;28;20471;-74
2023/12/28 01:07:55;;;;;;;7.90;1.75;;;;;;;8.39;100.00;100789.44;5037748;28;20033;-74
2023/12/28 01:10:21;;;;;;;3.05;1.60;;;;;;;8.49;100.00;100781.66;5035050;28;20045;-74
2023/12/28 01:12:46;;;;;;;4.78;2.20;;;;;;;8.63;100.00;100786.38;5039820;28;20021;-74
2023/12/28 01:15:11;;;;;;;5.28;1.80;;;;;;;8.53;100.00;100777.84;5030032;28;20435;-74
2023/12/28 01:17:37;;;;;;;3.38;1.50;;;;;;;8.61;100.00;100796.06;5033381;28;20045;-74
2023/12/28 01:20:04;;;;;;;3.65;1.67;;;;;;;8.67;100.00;100792.09;5019830;28;20040;-74
2023/12/28 01:22:29;;;;;;;6.65;2.38;;;;;;;8.63;100.00;100793.31;5033284;28;20151;-74
2023/12/28 01:24:55;;;;;;;6.78;2.47;;;;;;;8.62;100.00;100787.31;5031722;28;20594;-74
2023/12/28 01:27:20;;;;;;;7.32;2.03;;;;;;;8.67;100.00;100784.31;5034401;28;20476;-74
2023/12/28 01:29:46;;;;;;;10.13;2.10;;;;;;;8.71;100.00;100796.00;5032761;28;20045;-74
2023/12/28 01:32:11;;;;;;;4.35;2.25;;;;;;;8.61;100.00;100801.22;5032602;28;20033;-74
2023/12/28 01:34:37;;;;;;;4.45;2.08;;;;;;;8.66;100.00;100805.94;5036987;28;20075;-74
2023/12/28 01:37:02;;;;;;;6.47;1.90;;;;;;;8.69;100.00;100797.91;5036354;28;20479;-74
2023/12/28 01:39:28;;;;;;;3.20;2.00;;;;;;;8.74;100.00;100809.47;5032892;28;20120;-75
2023/12/28 01:41:54;;;;;;;6.70;1.85;;;;;;;8.74;100.00;100813.81;5034120;28;20039;-75
2023/12/28 01:44:19;;;;;;;3.53;1.70;;;;;;;8.81;100.00;100801.91;5037597;28;20383;-74
2023/12/28 01:46:46;;;;;;;3.20;1.90;;;;;;;8.76;100.00;100817.06;5019959;28;20500;-74
2023/12/28 01:49:12;;;;;;;7.72;2.17;;;;;;;8.79;100.00;100808.22;5042189;28;20427;-74
2023/12/28 01:51:38;;;;;;;3.85;1.92;;;;;;;8.75;100.00;100824.00;5037336;28;20037;-75
2023/12/28 01:54:03;;;;;;;6.45;2.20;;;;;;;8.74;100.00;100819.78;5039016;28;20030;-74
2023/12/28 01:56:29;;;;;;;3.90;1.83;;;;;;;8.73;100.00;100825.09;5038214;28;20037;-75
2023/12/28 01:58:55;;;;;;;6.07;1.88;;;;;;;8.83;100.00;100817.28;5041934;28;20040;-74
2023/12/28 02:01:21;;;;;;;4.32;2.30;;;;;;;8.98;100.00;100826.19;5035067;28;20041;-74
2023/12/28 02:03:46;;;;;;;4.28;1.95;;;;;;;8.96;100.00;100823.75;5033740;28;20039;-74
2023/12/28 02:06:15;;;;;;;3.92;1.70;;;;;;;8.97;100.00;100819.41;5040428;28;20160;-75
2023/12/28 02:08:41;;;;;;;3.13;2.00;;;;;;;9.00;100.00;100824.28;5026208;28;20637;-74
2023/12/28 02:11:07;;;;;;;6.13;2.25;;;;;;;8.95;100.00;100832.47;5036377;28;20041;-74
2023/12/28 02:13:32;;;;;;;5.40;2.28;;;;;;;9.09;100.00;100832.94;5032735;28;20043;-74
2023/12/28 02:16:03;;;;;;;6.82;2.15;;;;;;;9.20;100.00;100837.91;5035442;28;20044;-75
2023/12/28 02:18:35;;;;;;;7.05;1.98;;;;;;;9.23;100.00;100822.13;5021017;28;20029;-75
2023/12/28 02:21:02;;;;;;;5.18;2.17;;;;;;;9.13;100.00;100832.50;5024047;28;20074;-74
2023/12/28 02:23:27;;;;;;;5.85;2.20;;;;;;;9.22;100.00;100827.44;5032736;28;20053;-74
2023/12/28 02:25:53;;;;;;;3.80;1.90;;;;;;;9.16;100.00;100824.47;5035483;28;20045;-74
2023/12/28 02:28:18;;;;;;;6.50;2.40;;;;;;;9.13;100.00;100835.09;5039224;28;20044;-74
2023/12/28 02:30:45;;;;;;;4.80;2.55;;;;;;;9.19;100.00;100838.06;5043875;28;20040;-74
2023/12/28 02:33:19;;;;;;;5.50;2.30;;;;;;;9.30;100.00;100830.09;5025013;28;20033;-74
2023/12/28 02:35:52;;;;;;;5.78;2.03;;;;;;;9.31;100.00;100840.28;5024243;28;20036;-74
2023/12/28 02:38:18;;;;;;;;;;;;;;;9.23;100.00;100839.38;5026158;28;20037;-74
2023/12/28 02:40:44;;;;;;;6.28;2.03;;;;;;;9.16;100.00;100834.81;5039904;28;19924;-74
2023/12/28 02:43:11;;;;;;;7.05;2.33;;;;;;;9.06;100.00;100830.63;5037694;28;20066;-75
2023/12/28 02:45:37;;;;;;;5.43;2.20;;;;;;;9.00;100.00;100833.81;5040125;28;20029;-74
2023/12/28 02:48:03;;;;;;;5.45;2.25;;;;;;;9.05;100.00;100824.66;5038612;28;20033;-74
2023/12/28 02:50:32;;;;;;;6.30;2.38;;;;;;;9.06;100.00;100821.13;5022774;28;20045;-74
2023/12/28 02:52:58;;;;;;;5.03;2.10;;;;;;;9.13;100.00;100814.38;5040376;28;20063;-74
2023/12/28 02:55:24;;;;;;;4.88;2.40;;;;;;;8.99;100.00;100827.03;5038099;28;20041;-74
2023/12/28 02:57:52;;;;;;;7.93;2.35;;;;;;;8.96;100.00;100828.13;5040293;28;20475;-74
2023/12/28 03:00:17;;;;;;;4.80;2.33;;;;;;;8.85;100.00;100820.56;5040012;28;20033;-74
2023/12/28 03:02:43;;;;;;;6.40;2.40;;;;;;;8.91;100.00;100819.97;5033731;28;20036;-74
2023/12/28 03:05:09;;;;;;;6.97;2.65;;;;;;;9.07;100.00;100827.09;5041655;28;20538;-74
2023/12/28 03:07:35;;;;;;;6.75;2.58;;;;;;;9.00;100.00;100828.63;5044142;28;20149;-74
2023/12/28 03:10:02;;;;;;;6.72;2.60;;;;;;;8.93;100.00;100825.84;5027015;28;20041;-74
2023/12/28 03:12:28;;;;;;;8.55;2.47;;;;;;;8.97;100.00;100827.16;5024422;28;20030;-74
2023/12/28 03:14:54;;;;;;;6.45;2.28;;;;;;;8.99;100.00;100830.44;5040342;28;20115;-74
2023/12/28 03:17:20;;;;;;;5.55;2.20;;;;;;;8.92;100.00;100834.53;5037336;28;20028;-75
2023/12/28 03:19:45;;;;;;;5.97;2.40;;;;;;;8.93;100.00;100837.00;5040089;28;20561;-74
2023/12/28 03:22:11;;;;;;;4.95;2.13;;;;;;;8.90;100.00;100834.69;5041439;28;20029;-74
2023/12/28 03:24:37;;;;;;;4.38;2.05;;;;;;;8.84;100.00;100827.50;5023682;28;20094;-75
2023/12/28 03:27:04;;;;;;;3.55;1.98;;;;;;;8.88;100.00;100841.78;5040437;28;20041;-74
2023/12/28 03:29:30;;;;;;;6.93;2.40;;;;;;;8.82;100.00;100824.25;5039594;28;20044;-74
2023/12/28 03:31:55;;;;;;;10.15;2.72;;;;;;;8.90;100.00;100826.13;5034788;28;20032;-74
2023/12/28 03:34:22;;;;;;;7.53;2.17;;;;;;;8.91;100.00;100825.13;5036109;28;20514;-74
2023/12/28 03:36:50;;;;;;;4.13;1.98;;;;;;;8.82;100.00;100813.91;5040481;28;20174;-74
2023/12/28 03:39:17;;;;;;;6.30;2.28;;;;;;;8.79;100.00;100824.53;5043123;28;20395;-74
2023/12/28 03:41:42;;;;;;;4.45;2.25;;;;;;;8.69;100.00;100814.22;5034083;28;20038;-75
2023/12/28 03:44:08;;;;;;;4.88;2.45;;;;;;;8.66;100.00;100811.13;5037850;28;20381;-74
2023/12/28 03:46:33;;;;;;;4.93;2.42;;;;;;;8.73;100.00;100817.34;5022558;28;20052;-74
2023/12/28 03:48:58;;;;;;;5.45;2.13;;;;;;;8.60;100.00;100819.44;5039455;28;20443;-74
2023/12/28 03:51:24;;;;;;;5.20;2.03;;;;;;;8.70;100.00;100813.28;5022805;28;20065;-74
2023/12/28 03:53:49;;;;;;;5.47;2.38;;;;;;;8.67;100.00;100813.56;5039542;28;20377;-74
2023/12/28 03:56:19;;;;;;;4.97;2.55;;;;;;;8.73;100.00;100810.41;5034215;28;20404;-75
2023/12/28 03:58:44;;;;;;;4.25;2.03;;;;;;;8.70;100.00;100822.78;5041969;28;20028;-74
2023/12/28 04:01:10;;;;;;;4.53;1.77;;;;;;;8.61;100.00;100832.25;5034664;28;20033;-74
2023/12/28 04:03:35;;;;;;;5.78;2.42;;;;;;;8.50;100.00;100825.47;5043379;28;20033;-74
2023/12/28 04:06:03;;;;;;;4.88;2.00;;;;;;;8.54;100.00;100818.25;5040322;28;20041;-74
2023/12/28 04:08:30;;;;;;;6.07;2.45;;;;;;;8.60;100.00;100812.50;5024670;28;20123;-74
2023/12/28 04:10:56;;;;;;;5.90;2.30;;;;;;;8.53;100.00;100819.19;5041692;28;20409;-74
2023/12/28 04:13:22;;;;;;;4.63;2.13;;;;;;;8.52;100.00;100835.66;5044994;28;20466;-74
2023/12/28 04:15:47;;;;;;;6.15;2.15;;;;;;;8.57;100.00;100836.06;5042513;28;20044;-75
2023/12/28 04:18:13;;;;;;;7.85;2.28;;;;;;;8.53;100.00;100839.88;5034218;28;20036;-74
2023/12/28 04:20:38;;;;;;;8.30;2.50;;;;;;;8.44;100.00;100830.38;5029040;28;20403;-74
2023/12/28 04:23:03;;;;;;;5.60;2.17;;;;;;;8.44;100.00;100836.38;5042594;28;20388;-74
2023/12/28 04:25:29;;;;;;;6.63;1.70;;;;;;;8.39;100.00;100839.34;5040765;28;20860;-75
2023/12/28 04:27:54;;;;;;;6.65;2.20;;;;;;;8.49;100.00;100835.94;5048221;28;20024;-74
2023/12/28 04:30:20;;;;;;;4.53;2.00;;;;;;;8.36;100.00;100842.22;5041801;28;20403;-74
2023/12/28 04:32:45;;;;;;;4.47;1.95;;;;;;;8.44;100.00;100844.13;5028155;28;20029;-74
2023/12/28 04:35:11;;;;;;;7.35;2.38;;;;;;;8.27;100.00;100845.66;5041254;28;20377;-75
2023/12/28 04:37:36;;;;;;;6.00;2.33;;;;;;;8.48;100.00;100844.66;5040064;28;20085;-74
2023/12/28 04:40:03;;;;;;;6.53;2.70;;;;;;;8.38;100.00;100848.06;5030186;28;20557;-74
2023/12/28 04:42:29;;;;;;;5.10;1.88;;;;;;;8.51;100.00;100850.38;5042074;28;20623;-74
2023/12/28 04:44:54;;;;;;;8.10;1.95;;;;;;;8.45;100.00;100857.84;5046228;28;20626;-74
2023/12/28 04:47:20;;;;;;;6.90;2.03;;;;;;;8.41;100.00;100859.06;5045079;28;20032;-75
2023/12/28 04:49:45;;;;;;;5.78;2.13;;;;;;;8.32;100.00;100858.13;5027323;28;20045;-74
2023/12/28 04:52:11;;;;;;;6.97;2.03;;;;;;;8.34;100.00;100851.06;5021695;28;20036;-74
2023/12/28 04:54:40;;;;;;;6.30;2.38;;;;;;;8.47;100.00;100850.78;5019113;28;20049;-75
2023/12/28 04:57:08;;;;;;;7.80;2.35;;;;;;;8.36;100.00;100847.38;5033742;28;20598;-75
2023/12/28 04:59:38;;;;;;;5.70;1.95;;;;;;;8.45;100.00;100855.28;5025625;28;20401;-75
2023/12/28 05:02:04;;;;;;;7.00;2.05;;;;;;;8.51;100.00;100852.97;5039852;28;20113;-74
2023/12/28 05:04:29;;;;;;;6.53;2.53;;;;;;;8.49;100.00;100847.09;5023491;28;20044;-74
2023/12/28 05:06:55;;;;;;;8.23;2.28;;;;;;;8.63;100.00;100843.25;5035382;28;20025;-75
2023/12/28 05:09:20;;;;;;;8.43;2.30;;;;;;;8.58;100.00;100843.66;5040104;28;20029;-74
2023/12/28 05:11:46;;;;;;;8.35;2.25;;;;;;;8.62;100.00;100843.38;5043698;28;20037;-74
2023/12/28 05:14:11;;;;;;;7.90;2.20;;;;;;;8.64;100.00;100852.63;5039747;28;20029;-74
2023/12/28 05:16:37;;;;;;;9.57;1.90;;;;;;;8.69;100.00;100858.19;5045524;28;20504;-74
2023/12/28 05:19:02;;;;;;;9.50;2.20;;;;;;;8.67;100.00;100854.94;5038974;28;20045;-74
2023/12/28 05:21:27;;;;;;;7.13;2.05;;;;;;;8.61;100.00;100858.09;5042688;28;20102;-74
2023/12/28 05:23:53;;;;;;;6.18;2.10;;;;;;;8.66;100.00;100865.41;5023670;28;20036;-74
2023/12/28 05:26:18;;;;;;;5.20;2.22;;;;;;;8.64;100.00;100859.56;5042890;28;20040;-75
2023/12/28 05:28:44;;;;;;;4.38;1.90;;;;;;;8.76;100.00;100867.00;5047193;28;20041;-74
2023/12/28 05:31:09;;;;;;;11.75;2.67;;;;;;;8.70;100.00;100861.56;5039987;28;20048;-75
2023/12/28 05:33:35;;;;;;;5.35;2.15;;;;;;;8.85;100.00;100865.31;5037487;28;20029;-75
2023/12/28 05:36:00;;;;;;;3.83;2.00;;;;;;;8.71;100.00;100863.22;5041088;28;20692;-75
2023/12/28 05:38:26;;;;;;;7.07;2.22;;;;;;;8.74;100.00;100866.34;5041389;28;20604;-75
2023/12/28 05:40:51;;;;;;;4.38;2.10;;;;;;;8.72;100.00;100880.34;5038913;28;20037;-74
2023/12/28 05:43:17;;;;;;;8.65;2.33;;;;;;;8.68;100.00;100879.00;5038980;28;20077;-74
2023/12/28 05:45:42;;;;;;;5.80;1.98;;;;;;;8.79;100.00;100872.84;5024785;28;20040;-74
2023/12/28 05:48:08;;;;;;;3.83;2.08;;;;;;;8.69;100.00;100883.22;5036507;28;20043;-74
2023/12/28 05:50:33;;;;;;;4.95;1.90;;;;;;;8.70;100.00;100890.00;5043677;28;20044;-75
2023/12/28 05:52:58;;;;;;;4.50;2.00;;;;;;;8.77;100.00;100893.66;5042749;28;20033;-74
2023/12/28 05:55:25;;;;;;;5.05;1.80;;;;;;;8.81;100.00;100895.00;5038714;28;20045;-74
2023/12/28 05:57:50;;;;;;;6.78;1.95;;;;;;;8.89;100.00;100889.13;5030237;28;20025;-74
2023/12/28 06:00:16;;;;;;;5.90;1.67;;;;;;;8.85;100.00;100906.69;5039458;28;20041;-74
2023/12/28 06:02:41;;;;;;;8.63;1.92;;;;;;;8.84;100.00;100910.25;5043218;28;20519;-74
2023/12/28 06:05:07;;;;;;;6.13;2.05;;;;;;;8.86;100.00;100907.53;5044379;28;20060;-74
2023/12/28 06:07:33;;;;;;;6.22;2.13;;;;;;;8.76;100.00;100910.97;5026379;28;20071;-75
2023/12/28 06:09:58;;;;;;;8.88;2.60;;;;;;;8.82;100.00;100906.19;5041808;28;20037;-75
2023/12/28 06:12:24;;;;;;;14.23;2.03;;;;;;;8.87;100.00;100902.22;5044810;28;20037;-74
2023/12/28 06:14:50;;;;;;;8.88;1.50;;;;;;;8.79;100.00;100909.03;5044984;28;20104;-74
2023/12/28 06:17:16;;;;;;;6.22;1.73;;;;;;;8.79;100.00;100902.09;5041959;28;20037;-74
2023/12/28 06:19:41;;;;;;;10.65;2.45;;;;;;;8.91;100.00;100913.06;5037287;28;20037;-74
2023/12/28 06:22:07;;;;;;;9.52;2.63;;;;;;;8.84;100.00;100905.06;5033939;28;20044;-74
2023/12/28 06:24:33;;;;;;;5.38;2.13;;;;;;;8.90;100.00;100898.53;5040971;28;20038;-74
2023/12/28 06:27:00;;;;;;;6.05;1.50;;;;;;;8.85;100.00;100913.66;5038140;28;20064;-74
2023/12/28 06:29:26;;;;;;;7.65;2.00;;;;;;;8.94;100.00;100907.63;5040339;28;20040;-74
2023/12/28 06:31:51;;;;;;;6.72;1.98;;;;;;;8.93;100.00;100911.97;5039102;28;20025;-75
2023/12/28 06:34:17;;;;;;;10.95;1.98;;;;;;;8.98;100.00;100911.53;5042824;28;20053;-74
2023/12/28 06:36:43;;;;;;;9.60;2.30;;;;;;;8.86;100.00;100910.13;5043207;28;20033;-74
2023/12/28 06:39:08;;;;;;;5.30;1.90;;;;;;;8.82;100.00;100904.41;5042632;28;20025;-74
2023/12/28 06:41:34;;;;;;;4.68;1.70;;;;;;;8.98;100.00;100908.16;5040858;28;20417;-74
2023/12/28 06:44:00;;;;;;;9.32;1.90;;;;;;;8.91;100.00;100905.31;5036865;28;20044;-74
2023/12/28 06:46:25;;;;;;;8.60;2.03;;;;;;;9.06;100.00;100901.31;5033926;28;20044;-74
2023/12/28 06:48:51;;;;;;;5.10;1.50;;;;;;;8.95;100.00;100907.47;5038651;28;20029;-74
2023/12/28 06:51:20;;;;;;;9.10;1.98;;;;;;;8.93;100.00;100909.41;5027903;28;20506;-74
2023/12/28 06:53:48;;;;;;;10.32;1.90;;;;;;;9.03;100.00;100909.34;5040729;28;20128;-74
2023/12/28 06:56:14;;;;;;;6.03;2.00;;;;;;;8.97;100.00;100907.34;5039990;28;20108;-73
2023/12/28 06:58:40;;;;;;;6.97;2.03;;;;;;;9.07;100.00;100904.72;5033409;28;20531;-74
2023/12/28 07:01:06;;;;;;;12.75;2.35;;;;;;;9.10;100.00;100909.59;5038932;28;20090;-74
2023/12/28 07:03:32;;;;;;;7.28;1.95;;;;;;;9.09;100.00;100901.00;5038969;28;20467;-74
2023/12/28 07:05:58;;;;;;;8.63;2.58;;;;;;;9.14;100.00;100895.44;5036084;28;20040;-74
2023/12/28 07:08:24;;;;;;;11.90;1.92;;;;;;;9.05;100.00;100898.88;5039664;28;20091;-74
2023/12/28 07:10:49;;;;;;;7.45;2.03;;;;;;;9.01;100.00;100908.69;5037415;28;20041;-74
2023/12/28 07:13:15;;;;;;;10.48;2.10;;;;;;;8.92;100.00;100904.38;5041287;28;20552;-74
2023/12/28 07:15:40;;;;;;;8.43;1.77;;;;;;;8.99;100.00;100900.25;5037413;28;20408;-74
2023/12/28 07:18:06;;;;;;;10.63;1.75;;;;;;;8.94;100.00;100910.22;5039934;28;20036;-74
2023/12/28 07:20:31;;;;;;;9.02;2.00;;;;;;;8.90;100.00;100912.25;5036062;28;20039;-74
2023/12/28 07:22:57;;;;;;;8.77;1.88;;;;;;;8.92;100.00;100907.75;5040856;28;20021;-75
2023/12/28 07:25:22;;;;;;;4.60;1.48;;;;;;;9.09;100.00;100902.78;5039736;28;20611;-73
2023/12/28 07:27:47;;;;;;;9.00;2.00;;;;;;;9.14;100.00;100898.81;5026900;28;20033;-74
2023/12/28 07:30:13;;;;;;;6.78;1.70;;;;;;;9.12;100.00;100926.59;5036252;28;20053;-74
2023/12/28 07:32:39;;;;;;;7.53;1.67;;;;;;;9.05;100.00;100922.16;5041019;28;20025;-74
2023/12/28 07:35:05;;;;;;;8.80;2.10;;;;;;;9.10;100.00;100930.31;5034875;28;20041;-74
2023/12/28 07:37:30;;;;;;;9.70;2.00;;;;;;;9.10;100.00;100936.28;5034637;28;20116;-74
2023/12/28 07:39:56;;;;;;;13.45;3.10;;;;;;;9.09;100.00;100937.22;5042032;28;20044;-75
2023/12/28 07:42:22;;;;;;;12.70;1.55;;;;;;;9.16;100.00;100948.63;5043388;28;20048;-74
2023/12/28 07:44:47;;;;;;;6.55;1.80;;;;;;;9.17;100.00;100939.09;5028587;28;20503;-74
2023/12/28 07:47:13;;;;;;;7.72;1.85;;;;;;;9.22;100.00;100954.22;5039190;28;20368;-74
2023/12/28 07:49:38;;;;;;;10.65;2.10;;;;;;;9.11;100.00;100963.75;5041323;28;20396;-75
2023/12/28 07:52:04;;;;;;;9.27;1.75;;;;;;;9.13;100.00;100972.19;5040659;28;20037;-74
2023/12/28 07:54:29;;;;;;;12.48;2.03;;;;;;;9.15;99.92;100956.53;5036387;28;20037;-74
2023/12/28 07:56:55;;;;;;;12.52;1.50;;;;;;;9.18;99.94;100963.22;5040454;28;20292;-74
2023/12/28 07:59:20;;;;;;;11.05;1.85;;;;;;;9.20;99.30;100961.31;5038256;28;20388;-74
2023/12/28 08:01:46;;;;;;;16.75;2.47;;;;;;;9.19;100.00;100967.41;5039880;28;20738;-74
2023/12/28 08:04:11;;;;;;;8.63;1.73;;;;;;;9.03;100.00;100955.91;5043940;28;20577;-74
2023/12/28 08:06:37;;;;;;;11.65;2.83;;;;;;;9.06;100.00;100962.56;5038353;28;20411;-74
2023/12/28 08:09:02;;;;;;;9.50;1.75;;;;;;;9.01;100.00;100959.59;5032092;28;20054;-74
2023/12/28 08:11:28;;;;;;;10.77;1.95;;;;;;;9.06;100.00;100959.97;5044975;28;20044;-74
2023/12/28 08:13:53;;;;;;;6.93;1.77;;;;;;;9.05;100.00;100972.09;5044724;28;20033;-75
2023/12/28 08:16:20;;;;;;;12.93;2.17;;;;;;;9.13;99.79;100972.19;5038632;28;20038;-74
2023/12/28 08:18:45;;;;;;;13.70;2.10;;;;;;;9.13;99.47;100967.03;5040160;28;20060;-74
2023/12/28 08:21:11;;;;;;;10.45;1.75;;;;;;;9.09;99.61;100964.88;5037224;28;20569;-74
2023/12/28 08:23:36;;;;;;;11.43;2.20;;;;;;;9.06;99.69;100966.00;5038530;28;20104;-74
2023/12/28 08:26:02;;;;;;;14.57;2.35;;;;;;;9.06;100.00;100971.16;5033256;28;20423;-75
2023/12/28 08:28:28;;;;;;;15.75;1.70;;;;;;;8.98;100.00;100965.84;5039435;28;20038;-74
2023/12/28 08:30:55;;;;;;;14.32;2.20;;;;;;;8.94;100.00;100972.28;5035336;28;20411;-73
2023/12/28 08:33:21;;;;;;;8.77;1.52;;;;;;;9.00;99.84;100982.06;5037625;28;20112;-74
2023/12/28 08:35:46;;;;;;;12.18;1.77;;;;;;;9.04;100.00;100973.06;5033990;28;20041;-75
2023/12/28 08:38:12;;;;;;;15.43;1.80;;;;;;;9.13;100.00;100981.75;5023964;28;20036;-74
2023/12/28 08:40:37;;;;;;;11.52;1.95;;;;;;;9.03;100.00;100986.16;5059630;28;20053;-74
2023/12/28 08:43:03;;;;;;;13.00;1.70;;;;;;;9.06;100.00;100985.84;5036684;28;20032;-74
2023/12/28 08:45:28;;;;;;;15.35;2.15;;;;;;;9.11;100.00;101002.56;5059360;28;20047;-74
2023/12/28 08:47:54;;;;;;;7.82;1.95;;;;;;;9.14;99.13;100989.38;5041186;28;20037;-74
2023/12/28 08:50:19;;;;;;;13.48;1.98;;;;;;;9.25;97.90;100992.72;5036588;28;20037;-74
2023/12/28 08:52:45;;;;;;;12.23;2.05;;;;;;;9.25;98.70;100996.16;5042577;28;20053;-75
2023/12/28 08:55:10;;;;;;;14.82;1.85;;;;;;;9.26;98.47;100995.16;5035618;28;20128;-75
2023/12/28 08:57:36;;;;;;;15.77;2.30;;;;;;;9.23;98.75;100997.22;5044752;28;20407;-74
2023/12/28 09:00:02;;;;;;;16.10;1.80;;;;;;;9.20;99.02;100998.34;5025446;28;20032;-74
2023/12/28 09:02:29;;;;;;;17.45;2.95;;;;;;;9.25;99.24;100993.56;5045991;28;20403;-75
2023/12/28 09:04:54;;;;;;;16.58;2.72;;;;;;;9.33;98.29;100992.84;5039436;28;20051;-74
2023/12/28 09:07:20;;;;;;;11.18;2.00;;;;;;;9.36;98.22;100995.13;5043632;28;20028;-74
2023/12/28 09:09:46;;;;;;;10.68;2.22;;;;;;;9.46;97.72;100995.09;5039480;28;20036;-75
2023/12/28 09:12:11;;;;;;;17.05;2.00;;;;;;;9.53;95.86;100993.53;5040163;28;20041;-75
2023/12/28 09:14:37;;;;;;;16.23;2.42;;;;;;;9.45;96.39;100996.84;5048429;28;20106;-75
2023/12/28 09:17:03;;;;;;;9.65;2.40;;;;;;;9.54;95.55;100990.00;5043946;28;20033;-74
2023/12/28 09:19:29;;;;;;;9.98;2.53;;;;;;;9.51;95.45;101005.81;5025785;28;20573;-74
2023/12/28 09:21:54;;;;;;;7.20;1.73;;;;;;;9.49;95.56;101016.34;5038308;28;20041;-75
2023/12/28 09:24:19;;;;;;;12.73;2.03;;;;;;;9.51;95.08;101009.25;5046453;28;20036;-75
2023/12/28 09:26:45;;;;;;;9.73;2.28;;;;;;;9.53;94.87;101029.78;5031015;28;20040;-74
2023/12/28 09:29:11;;;;;;;12.40;1.85;;;;;;;9.59;94.60;101015.44;5035957;28;20415;-75
2023/12/28 09:31:37;;;;;;;13.20;1.92;;;;;;;9.57;95.00;101022.56;5044896;28;20084;-74
2023/12/28 09:34:04;;;;;;;12.32;1.95;;;;;;;9.59;95.06;101026.66;5039063;28;20748;-74
2023/12/28 09:36:30;;;;;;;19.42;2.55;;;;;;;9.48;95.16;101026.84;5042478;28;20459;-75
2023/12/28 09:38:55;;;;;;;15.75;1.95;;;;;;;9.59;94.79;101018.88;5036367;28;20121;-74
2023/12/28 09:41:25;;;;;;;14.77;3.10;;;;;;;9.64;94.74;101010.66;5042025;28;20496;-74
2023/12/28 09:44:07;;;;;;;11.23;1.90;;;;;;;9.59;95.26;101012.88;5043265;28;20403;-74
2023/12/28 09:46:32;;;;;;;13.30;1.67;;;;;;;9.57;94.65;101009.59;5043778;28;20069;-74
2023/12/28 09:48:58;;;;;;;12.68;2.55;;;;;;;9.72;94.04;101009.00;5040087;28;20079;-74
2023/12/28 09:51:25;;;;;;;11.32;2.25;;;;;;;9.74;92.71;101014.84;5043555;28;20087;-74
2023/12/28 09:53:51;;;;;;;14.80;1.92;;;;;;;9.86;92.30;101007.66;5041733;28;20033;-74
2023/12/28 09:56:16;;;;;;;12.73;2.17;;;;;;;9.87;91.78;101003.28;5039132;28;20053;-74
2023/12/28 09:58:44;;;;;;;15.75;1.95;;;;;;;9.85;91.82;101003.47;5043054;28;20044;-74
2023/12/28 10:01:10;;;;;;;10.65;1.90;;;;;;;9.81;92.17;101004.69;5037497;28;20053;-74
2023/12/28 10:03:35;;;;;;;10.90;2.10;;;;;;;9.89;92.43;101001.41;5036497;28;20039;-75
2023/12/28 10:06:01;;;;;;;14.65;2.05;;;;;;;9.88;92.90;101000.56;5040538;28;20487;-74
2023/12/28 10:08:26;;;;;;;19.73;1.85;;;;;;;9.87;93.19;101003.28;5044279;28;20033;-74
2023/12/28 10:10:54;;;;;;;16.27;2.20;;;;;;;9.93;93.04;101006.13;5048306;28;20063;-74
2023/12/28 10:13:20;;;;;;;11.32;2.00;;;;;;;9.90;92.63;101003.03;5041994;28;20055;-75
2023/12/28 10:15:46;;;;;;;14.60;1.88;;;;;;;10.01;92.89;101014.94;5036663;28;20048;-74
2023/12/28 10:18:11;;;;;;;18.02;2.00;;;;;;;9.94;93.63;101014.72;5037970;28;20028;-75
2023/12/28 10:20:37;;;;;;;15.52;1.98;;;;;;;10.07;92.48;101019.53;5045805;28;20119;-74
2023/12/28 10:23:03;;;;;;;12.30;1.90;;;;;;;10.07;92.52;101016.94;5039074;28;20029;-74
2023/12/28 10:25:31;;;;;;;11.40;1.65;;;;;;;10.17;92.71;101009.94;5039159;28;20055;-74
2023/12/28 10:27:56;;;;;;;18.58;2.30;;;;;;;10.22;91.28;101025.84;5036371;28;20468;-75
2023/12/28 10:30:22;;;;;;;13.10;2.33;;;;;;;10.19;92.00;101007.16;5034662;28;20041;-75
2023/12/28 10:32:47;;;;;;;17.15;1.90;;;;;;;10.20;90.92;101011.41;5036017;28;20569;-74
2023/12/28 10:35:13;;;;;;;17.30;1.90;;;;;;;10.32;90.55;101012.81;5039853;28;20033;-75
2023/12/28 10:37:42;;;;;;;15.52;2.10;;;;;;;10.40;90.01;101005.13;5043644;28;20108;-74
2023/12/28 10:40:15;;;;;;;15.60;1.88;;;;;;;10.42;90.28;101002.41;5023341;28;20068;-75
2023/12/28 10:42:53;;;;;;;11.57;1.50;;;;;;;10.35;89.99;100994.38;5042009;28;20505;-74
2023/12/28 10:45:23;;;;;;;8.43;1.58;;;;;;;10.40;89.39;101002.53;5037763;28;21219;-76
2023/12/28 10:48:09;;;;;;;14.88;2.15;;;;;;;10.39;89.24;101000.09;5029024;28;20032;-75
2023/12/28 10:50:46;;;;;;;13.52;1.98;;;;;;;10.37;89.32;100996.84;5024492;28;20088;-74
2023/12/28 10:53:36;;;;;;;18.85;2.22;;;;;;;10.42;90.07;100995.44;5041376;28;20025;-74
2023/12/28 10:56:26;;;;;;;17.52;2.90;;;;;;;10.51;89.17;100999.72;5033056;28;20032;-74
2023/12/28 10:59:04;;;;;;;9.60;1.75;;;;;;;10.50;89.63;100992.88;5024600;28;20036;-74
2023/12/28 11:01:37;;;;;;;17.40;2.28;;;;;;;10.60;87.74;101000.56;5035456;28;20102;-73
2023/12/28 11:04:09;;;;;;;14.20;1.70;;;;;;;10.59;87.66;100988.59;5037351;28;20388;-74
2023/12/28 11:06:35;;;;;;;11.27;2.25;;;;;;;10.62;86.17;100980.47;5034421;28;20043;-74
2023/12/28 11:09:01;;;;;;;12.63;1.60;;;;;;;10.55;87.66;100982.09;5042572;28;20041;-74
2023/12/28 11:11:27;;;;;;;12.32;3.10;;;;;;;10.56;87.65;100975.91;5048033;28;20048;-74
2023/12/28 11:13:56;;;;;;;18.70;2.00;;;;;;;10.48;88.19;100974.06;5038229;28;20040;-74
2023/12/28 11:16:22;;;;;;;17.25;2.38;;;;;;;10.61;86.85;100973.69;5016561;28;20060;-74
2023/12/28 11:18:49;;;;;;;12.73;2.17;;;;;;;10.65;86.34;100969.00;5039008;28;20036;-74
2023/12/28 11:21:16;;;;;;;15.10;2.35;;;;;;;10.65;85.74;100969.00;5039411;28;20043;-74